sensor_id;sensor_type;location;lat;lon;timestamp;P1;durP1;ratioP1;P2;durP2;ratioP2
75059;SDS011;63640;59.264;18.116;2023-08-31T00:01:54;17.58;;;11.70;;
75059;SDS011;63640;59.264;18.116;2023-08-31T00:04:20;15.15;;;11.25;;
75059;SDS011;63640;59.264;18.116;2023-08-31T00:06:45;16.75;;;13.90;;
75059;SDS011;63640;59.264;18.116;2023-08-31T00:09:12;22.40;;;16.48;;
75059;SDS011;63640;59.264;18.116;2023-08-31T00:11:37;27.63;;;21.02;;
75059;SDS011;63640;59.264;18.116;2023-08-31T00:14:03;28.63;;;20.88;;
75059;SDS011;63640;59.264;18.116;2023-08-31T00:16:29;21.38;;;15.60;;
75059;SDS011;63640;59.264;18.116;2023-08-31T00:18:58;18.67;;;13.82;;
75059;SDS011;63640;59.264;18.116;2023-08-31T00:21:24;15.50;;;10.90;;
75059;SDS011;63640;59.264;18.116;2023-08-31T00:23:49;12.27;;;7.93;;
75059;SDS011;63640;59.264;18.116;2023-08-31T00:26:15;10.93;;;7.70;;
75059;SDS011;63640;59.264;18.116;2023-08-31T00:28:40;12.48;;;7.53;;
75059;SDS011;63640;59.264;18.116;2023-08-31T00:31:07;13.77;;;9.52;;
75059;SDS011;63640;59.264;18.116;2023-08-31T00:33:33;24.85;;;16.55;;
75059;SDS011;63640;59.264;18.116;2023-08-31T00:35:59;35.92;;;24.63;;
75059;SDS011;63640;59.264;18.116;2023-08-31T00:38:26;31.80;;;22.13;;
75059;SDS011;63640;59.264;18.116;2023-08-31T00:40:52;29.55;;;21.15;;
75059;SDS011;63640;59.264;18.116;2023-08-31T00:43:19;31.45;;;20.38;;
75059;SDS011;63640;59.264;18.116;2023-08-31T00:45:45;33.25;;;21.55;;
75059;SDS011;63640;59.264;18.116;2023-08-31T00:48:12;31.83;;;19.45;;
75059;SDS011;63640;59.264;18.116;2023-08-31T00:50:42;25.85;;;16.30;;
75059;SDS011;63640;59.264;18.116;2023-08-31T00:53:07;24.95;;;14.48;;
75059;SDS011;63640;59.264;18.116;2023-08-31T00:55:33;24.40;;;16.40;;
75059;SDS011;63640;59.264;18.116;2023-08-31T00:57:59;25.10;;;12.13;;
75059;SDS011;63640;59.264;18.116;2023-08-31T01:00:26;34.80;;;12.23;;
75059;SDS011;63640;59.264;18.116;2023-08-31T01:03:39;14.07;;;7.43;;
75059;SDS011;63640;59.264;18.116;2023-08-31T01:11:57;9.15;;;3.85;;
75059;SDS011;63640;59.264;18.116;2023-08-31T01:14:50;7.05;;;2.88;;
75059;SDS011;63640;59.264;18.116;2023-08-31T01:17:16;6.90;;;2.75;;
75059;SDS011;63640;59.264;18.116;2023-08-31T01:19:44;4.97;;;2.53;;
75059;SDS011;63640;59.264;18.116;2023-08-31T01:22:14;7.15;;;2.50;;
75059;SDS011;63640;59.264;18.116;2023-08-31T01:24:43;5.28;;;2.50;;
75059;SDS011;63640;59.264;18.116;2023-08-31T01:27:09;5.05;;;2.22;;
75059;SDS011;63640;59.264;18.116;2023-08-31T01:29:35;4.65;;;2.13;;
75059;SDS011;63640;59.264;18.116;2023-08-31T01:32:04;4.50;;;1.92;;
75059;SDS011;63640;59.264;18.116;2023-08-31T01:34:30;7.13;;;2.40;;
75059;SDS011;63640;59.264;18.116;2023-08-31T01:36:56;5.40;;;2.55;;
75059;SDS011;63640;59.264;18.116;2023-08-31T01:39:26;4.70;;;2.13;;
75059;SDS011;63640;59.264;18.116;2023-08-31T01:41:58;6.70;;;2.20;;
75059;SDS011;63640;59.264;18.116;2023-08-31T01:44:27;5.60;;;2.40;;
75059;SDS011;63640;59.264;18.116;2023-08-31T01:47:01;5.65;;;3.10;;
75059;SDS011;63640;59.264;18.116;2023-08-31T01:49:35;5.43;;;2.13;;
75059;SDS011;63640;59.264;18.116;2023-08-31T01:52:03;6.97;;;2.78;;
75059;SDS011;63640;59.264;18.116;2023-08-31T01:54:29;7.15;;;2.83;;
75059;SDS011;63640;59.264;18.116;2023-08-31T01:56:55;6.15;;;2.92;;
75059;SDS011;63640;59.264;18.116;2023-08-31T01:59:20;6.63;;;2.85;;
75059;SDS011;63640;59.264;18.116;2023-08-31T02:01:46;5.43;;;2.60;;
75059;SDS011;63640;59.264;18.116;2023-08-31T02:04:12;6.45;;;3.00;;
75059;SDS011;63640;59.264;18.116;2023-08-31T02:06:37;6.07;;;2.92;;
75059;SDS011;63640;59.264;18.116;2023-08-31T02:09:03;5.20;;;2.40;;
75059;SDS011;63640;59.264;18.116;2023-08-31T02:11:28;6.70;;;3.38;;
75059;SDS011;63640;59.264;18.116;2023-08-31T02:13:54;7.03;;;2.80;;
75059;SDS011;63640;59.264;18.116;2023-08-31T02:16:19;6.35;;;2.67;;
75059;SDS011;63640;59.264;18.116;2023-08-31T02:18:45;5.70;;;2.70;;
75059;SDS011;63640;59.264;18.116;2023-08-31T02:21:10;4.85;;;2.10;;
75059;SDS011;63640;59.264;18.116;2023-08-31T02:23:36;5.45;;;2.38;;
75059;SDS011;63640;59.264;18.116;2023-08-31T02:26:01;5.55;;;2.40;;
75059;SDS011;63640;59.264;18.116;2023-08-31T02:28:27;4.22;;;2.03;;
75059;SDS011;63640;59.264;18.116;2023-08-31T02:30:59;4.82;;;2.38;;
75059;SDS011;63640;59.264;18.116;2023-08-31T02:33:26;5.80;;;2.50;;
75059;SDS011;63640;59.264;18.116;2023-08-31T02:35:52;5.20;;;2.78;;
75059;SDS011;63640;59.264;18.116;2023-08-31T02:38:19;6.15;;;2.20;;
75059;SDS011;63640;59.264;18.116;2023-08-31T02:40:46;5.68;;;2.00;;
75059;SDS011;63640;59.264;18.116;2023-08-31T02:43:12;5.38;;;2.28;;
75059;SDS011;63640;59.264;18.116;2023-08-31T02:45:38;6.18;;;2.22;;
75059;SDS011;63640;59.264;18.116;2023-08-31T02:48:03;5.90;;;2.20;;
75059;SDS011;63640;59.264;18.116;2023-08-31T02:50:31;4.90;;;2.42;;
75059;SDS011;63640;59.264;18.116;2023-08-31T02:52:56;4.70;;;1.92;;
75059;SDS011;63640;59.264;18.116;2023-08-31T02:55:22;4.90;;;2.35;;
75059;SDS011;63640;59.264;18.116;2023-08-31T02:57:48;5.72;;;2.25;;
75059;SDS011;63640;59.264;18.116;2023-08-31T03:00:13;5.60;;;2.30;;
75059;SDS011;63640;59.264;18.116;2023-08-31T03:02:40;6.10;;;2.25;;
75059;SDS011;63640;59.264;18.116;2023-08-31T03:05:05;5.30;;;1.92;;
75059;SDS011;63640;59.264;18.116;2023-08-31T03:07:31;6.22;;;2.22;;
75059;SDS011;63640;59.264;18.116;2023-08-31T03:09:57;5.20;;;2.03;;
75059;SDS011;63640;59.264;18.116;2023-08-31T03:12:23;5.60;;;2.40;;
75059;SDS011;63640;59.264;18.116;2023-08-31T03:14:48;4.47;;;2.03;;
75059;SDS011;63640;59.264;18.116;2023-08-31T03:17:14;5.95;;;2.20;;
75059;SDS011;63640;59.264;18.116;2023-08-31T03:19:39;5.65;;;2.22;;
75059;SDS011;63640;59.264;18.116;2023-08-31T03:22:04;5.68;;;2.20;;
75059;SDS011;63640;59.264;18.116;2023-08-31T03:24:31;6.80;;;2.35;;
75059;SDS011;63640;59.264;18.116;2023-08-31T03:26:57;4.40;;;2.03;;
75059;SDS011;63640;59.264;18.116;2023-08-31T03:29:23;6.47;;;2.85;;
75059;SDS011;63640;59.264;18.116;2023-08-31T03:31:48;7.22;;;2.50;;
75059;SDS011;63640;59.264;18.116;2023-08-31T03:34:14;5.22;;;2.47;;
75059;SDS011;63640;59.264;18.116;2023-08-31T03:36:40;5.70;;;2.78;;
75059;SDS011;63640;59.264;18.116;2023-08-31T03:39:05;4.93;;;2.30;;
75059;SDS011;63640;59.264;18.116;2023-08-31T03:41:31;4.82;;;2.30;;
75059;SDS011;63640;59.264;18.116;2023-08-31T03:43:56;4.97;;;2.10;;
75059;SDS011;63640;59.264;18.116;2023-08-31T03:46:22;4.47;;;2.30;;
75059;SDS011;63640;59.264;18.116;2023-08-31T03:48:47;5.20;;;2.40;;
75059;SDS011;63640;59.264;18.116;2023-08-31T03:51:13;5.00;;;2.42;;
75059;SDS011;63640;59.264;18.116;2023-08-31T03:53:38;5.82;;;2.80;;
75059;SDS011;63640;59.264;18.116;2023-08-31T03:56:04;4.97;;;2.50;;
75059;SDS011;63640;59.264;18.116;2023-08-31T03:58:29;5.53;;;2.83;;
75059;SDS011;63640;59.264;18.116;2023-08-31T04:00:55;4.75;;;2.10;;
75059;SDS011;63640;59.264;18.116;2023-08-31T04:03:21;5.85;;;2.80;;
75059;SDS011;63640;59.264;18.116;2023-08-31T04:05:47;5.10;;;2.20;;
75059;SDS011;63640;59.264;18.116;2023-08-31T04:08:13;5.43;;;2.55;;
75059;SDS011;63640;59.264;18.116;2023-08-31T04:10:38;5.65;;;2.50;;
75059;SDS011;63640;59.264;18.116;2023-08-31T04:13:04;4.75;;;2.47;;
75059;SDS011;63640;59.264;18.116;2023-08-31T04:15:29;5.43;;;2.70;;
75059;SDS011;63640;59.264;18.116;2023-08-31T04:17:56;6.60;;;2.53;;
75059;SDS011;63640;59.264;18.116;2023-08-31T04:20:21;4.97;;;2.35;;
75059;SDS011;63640;59.264;18.116;2023-08-31T04:22:47;6.03;;;2.50;;
75059;SDS011;63640;59.264;18.116;2023-08-31T04:25:13;5.68;;;3.00;;
75059;SDS011;63640;59.264;18.116;2023-08-31T04:27:38;4.63;;;2.60;;
75059;SDS011;63640;59.264;18.116;2023-08-31T04:30:05;7.07;;;2.42;;
75059;SDS011;63640;59.264;18.116;2023-08-31T04:32:32;4.90;;;2.30;;
75059;SDS011;63640;59.264;18.116;2023-08-31T04:34:57;5.20;;;2.35;;
75059;SDS011;63640;59.264;18.116;2023-08-31T04:37:23;4.85;;;2.45;;
75059;SDS011;63640;59.264;18.116;2023-08-31T04:39:49;5.68;;;2.38;;
75059;SDS011;63640;59.264;18.116;2023-08-31T04:42:14;8.63;;;2.50;;
75059;SDS011;63640;59.264;18.116;2023-08-31T04:44:42;7.63;;;2.28;;
75059;SDS011;63640;59.264;18.116;2023-08-31T04:47:07;6.63;;;2.30;;
75059;SDS011;63640;59.264;18.116;2023-08-31T04:49:33;5.72;;;2.33;;
75059;SDS011;63640;59.264;18.116;2023-08-31T04:51:58;4.78;;;2.25;;
75059;SDS011;63640;59.264;18.116;2023-08-31T04:54:24;5.75;;;2.03;;
75059;SDS011;63640;59.264;18.116;2023-08-31T04:56:50;5.32;;;2.13;;
75059;SDS011;63640;59.264;18.116;2023-08-31T04:59:16;5.95;;;2.67;;
75059;SDS011;63640;59.264;18.116;2023-08-31T05:01:41;6.90;;;2.75;;
75059;SDS011;63640;59.264;18.116;2023-08-31T05:04:07;5.30;;;2.65;;
75059;SDS011;63640;59.264;18.116;2023-08-31T05:06:32;6.35;;;2.65;;
75059;SDS011;63640;59.264;18.116;2023-08-31T05:08:58;5.43;;;2.40;;
75059;SDS011;63640;59.264;18.116;2023-08-31T05:11:23;5.60;;;2.63;;
75059;SDS011;63640;59.264;18.116;2023-08-31T05:13:49;6.63;;;2.40;;
75059;SDS011;63640;59.264;18.116;2023-08-31T05:16:14;6.47;;;2.60;;
75059;SDS011;63640;59.264;18.116;2023-08-31T05:18:40;5.93;;;2.40;;
75059;SDS011;63640;59.264;18.116;2023-08-31T05:21:05;5.20;;;2.60;;
75059;SDS011;63640;59.264;18.116;2023-08-31T05:23:31;6.28;;;2.63;;
75059;SDS011;63640;59.264;18.116;2023-08-31T05:25:57;6.60;;;2.38;;
75059;SDS011;63640;59.264;18.116;2023-08-31T05:28:23;4.95;;;2.15;;
75059;SDS011;63640;59.264;18.116;2023-08-31T05:30:49;6.85;;;2.67;;
75059;SDS011;63640;59.264;18.116;2023-08-31T05:33:16;6.03;;;2.50;;
75059;SDS011;63640;59.264;18.116;2023-08-31T05:35:45;5.38;;;2.67;;
75059;SDS011;63640;59.264;18.116;2023-08-31T05:38:10;6.70;;;2.22;;
75059;SDS011;63640;59.264;18.116;2023-08-31T05:40:36;5.70;;;2.33;;
75059;SDS011;63640;59.264;18.116;2023-08-31T05:43:02;5.00;;;2.38;;
75059;SDS011;63640;59.264;18.116;2023-08-31T05:45:33;5.78;;;2.50;;
75059;SDS011;63640;59.264;18.116;2023-08-31T05:47:59;5.95;;;2.30;;
75059;SDS011;63640;59.264;18.116;2023-08-31T05:50:25;5.53;;;2.30;;
75059;SDS011;63640;59.264;18.116;2023-08-31T05:52:52;5.50;;;2.05;;
75059;SDS011;63640;59.264;18.116;2023-08-31T05:55:17;5.55;;;2.08;;
75059;SDS011;63640;59.264;18.116;2023-08-31T05:57:43;5.63;;;2.17;;
75059;SDS011;63640;59.264;18.116;2023-08-31T06:00:08;4.75;;;2.00;;
75059;SDS011;63640;59.264;18.116;2023-08-31T06:02:34;5.45;;;1.85;;
75059;SDS011;63640;59.264;18.116;2023-08-31T06:05:01;5.55;;;1.90;;
75059;SDS011;63640;59.264;18.116;2023-08-31T06:07:27;4.72;;;1.77;;
75059;SDS011;63640;59.264;18.116;2023-08-31T06:09:54;7.07;;;2.05;;
75059;SDS011;63640;59.264;18.116;2023-08-31T06:12:20;4.57;;;1.80;;
75059;SDS011;63640;59.264;18.116;2023-08-31T06:14:45;5.72;;;2.00;;
75059;SDS011;63640;59.264;18.116;2023-08-31T06:17:11;4.20;;;1.63;;
75059;SDS011;63640;59.264;18.116;2023-08-31T06:19:38;5.82;;;1.80;;
75059;SDS011;63640;59.264;18.116;2023-08-31T06:22:04;5.45;;;1.65;;
75059;SDS011;63640;59.264;18.116;2023-08-31T06:24:29;5.35;;;1.90;;
75059;SDS011;63640;59.264;18.116;2023-08-31T06:26:55;5.45;;;1.92;;
75059;SDS011;63640;59.264;18.116;2023-08-31T06:29:21;5.28;;;1.80;;
75059;SDS011;63640;59.264;18.116;2023-08-31T06:31:47;5.43;;;2.17;;
75059;SDS011;63640;59.264;18.116;2023-08-31T06:34:13;7.40;;;2.25;;
75059;SDS011;63640;59.264;18.116;2023-08-31T06:36:38;6.57;;;1.95;;
75059;SDS011;63640;59.264;18.116;2023-08-31T06:39:05;5.40;;;2.05;;
75059;SDS011;63640;59.264;18.116;2023-08-31T06:41:31;4.13;;;1.75;;
75059;SDS011;63640;59.264;18.116;2023-08-31T06:43:56;4.80;;;1.80;;
75059;SDS011;63640;59.264;18.116;2023-08-31T06:46:22;4.28;;;1.58;;
75059;SDS011;63640;59.264;18.116;2023-08-31T06:48:47;6.03;;;1.80;;
75059;SDS011;63640;59.264;18.116;2023-08-31T06:51:14;5.18;;;1.50;;
75059;SDS011;63640;59.264;18.116;2023-08-31T06:53:41;5.72;;;1.95;;
75059;SDS011;63640;59.264;18.116;2023-08-31T06:56:07;5.63;;;1.70;;
75059;SDS011;63640;59.264;18.116;2023-08-31T06:58:32;6.00;;;1.80;;
75059;SDS011;63640;59.264;18.116;2023-08-31T07:00:58;7.93;;;2.08;;
75059;SDS011;63640;59.264;18.116;2023-08-31T07:03:23;5.18;;;1.70;;
75059;SDS011;63640;59.264;18.116;2023-08-31T07:05:49;6.55;;;2.03;;
75059;SDS011;63640;59.264;18.116;2023-08-31T07:08:14;4.88;;;1.67;;
75059;SDS011;63640;59.264;18.116;2023-08-31T07:10:40;4.90;;;1.60;;
75059;SDS011;63640;59.264;18.116;2023-08-31T07:13:05;4.90;;;1.58;;
75059;SDS011;63640;59.264;18.116;2023-08-31T07:15:31;6.00;;;1.50;;
75059;SDS011;63640;59.264;18.116;2023-08-31T07:17:56;5.28;;;1.80;;
75059;SDS011;63640;59.264;18.116;2023-08-31T07:20:22;4.47;;;1.63;;
75059;SDS011;63640;59.264;18.116;2023-08-31T07:22:48;5.85;;;1.83;;
75059;SDS011;63640;59.264;18.116;2023-08-31T07:25:13;8.60;;;1.63;;
75059;SDS011;63640;59.264;18.116;2023-08-31T07:27:39;4.60;;;1.45;;
75059;SDS011;63640;59.264;18.116;2023-08-31T07:30:05;4.32;;;1.52;;
75059;SDS011;63640;59.264;18.116;2023-08-31T07:32:31;4.15;;;1.48;;
75059;SDS011;63640;59.264;18.116;2023-08-31T07:34:57;4.30;;;1.70;;
75059;SDS011;63640;59.264;18.116;2023-08-31T07:37:23;4.80;;;1.45;;
75059;SDS011;63640;59.264;18.116;2023-08-31T07:39:48;3.33;;;1.45;;
75059;SDS011;63640;59.264;18.116;2023-08-31T07:42:14;5.28;;;1.65;;
75059;SDS011;63640;59.264;18.116;2023-08-31T07:44:39;5.45;;;1.80;;
75059;SDS011;63640;59.264;18.116;2023-08-31T07:47:07;4.20;;;1.83;;
75059;SDS011;63640;59.264;18.116;2023-08-31T07:49:32;4.43;;;1.55;;
75059;SDS011;63640;59.264;18.116;2023-08-31T07:51:58;5.88;;;1.60;;
75059;SDS011;63640;59.264;18.116;2023-08-31T07:54:23;3.67;;;1.30;;
75059;SDS011;63640;59.264;18.116;2023-08-31T07:56:50;5.10;;;1.65;;
75059;SDS011;63640;59.264;18.116;2023-08-31T07:59:16;4.18;;;1.30;;
75059;SDS011;63640;59.264;18.116;2023-08-31T08:01:42;5.55;;;1.58;;
75059;SDS011;63640;59.264;18.116;2023-08-31T08:04:07;4.45;;;1.40;;
75059;SDS011;63640;59.264;18.116;2023-08-31T08:06:33;9.07;;;1.65;;
75059;SDS011;63640;59.264;18.116;2023-08-31T08:08:58;4.93;;;1.45;;
75059;SDS011;63640;59.264;18.116;2023-08-31T08:11:24;3.83;;;1.50;;
75059;SDS011;63640;59.264;18.116;2023-08-31T08:13:49;3.88;;;1.40;;
75059;SDS011;63640;59.264;18.116;2023-08-31T08:16:15;3.50;;;1.23;;
75059;SDS011;63640;59.264;18.116;2023-08-31T08:18:40;3.92;;;1.40;;
75059;SDS011;63640;59.264;18.116;2023-08-31T08:21:06;3.58;;;1.40;;
75059;SDS011;63640;59.264;18.116;2023-08-31T08:23:32;6.00;;;1.70;;
75059;SDS011;63640;59.264;18.116;2023-08-31T08:25:58;4.45;;;1.60;;
75059;SDS011;63640;59.264;18.116;2023-08-31T08:28:26;4.70;;;1.63;;
75059;SDS011;63640;59.264;18.116;2023-08-31T08:30:53;6.30;;;1.60;;
75059;SDS011;63640;59.264;18.116;2023-08-31T08:33:18;5.28;;;1.33;;
75059;SDS011;63640;59.264;18.116;2023-08-31T08:35:44;4.55;;;1.58;;
75059;SDS011;63640;59.264;18.116;2023-08-31T08:38:10;6.63;;;1.67;;
75059;SDS011;63640;59.264;18.116;2023-08-31T08:40:36;4.20;;;1.38;;
75059;SDS011;63640;59.264;18.116;2023-08-31T08:43:02;6.18;;;1.50;;
75059;SDS011;63640;59.264;18.116;2023-08-31T08:45:34;4.05;;;1.55;;
75059;SDS011;63640;59.264;18.116;2023-08-31T08:48:03;5.22;;;1.48;;
75059;SDS011;63640;59.264;18.116;2023-08-31T08:50:31;4.00;;;1.45;;
75059;SDS011;63640;59.264;18.116;2023-08-31T08:52:59;4.93;;;1.33;;
75059;SDS011;63640;59.264;18.116;2023-08-31T08:55:25;7.18;;;1.67;;
75059;SDS011;63640;59.264;18.116;2023-08-31T08:57:50;3.47;;;1.30;;
75059;SDS011;63640;59.264;18.116;2023-08-31T09:00:16;4.25;;;1.55;;
75059;SDS011;63640;59.264;18.116;2023-08-31T09:02:41;4.90;;;1.35;;
75059;SDS011;63640;59.264;18.116;2023-08-31T09:05:07;5.20;;;1.30;;
75059;SDS011;63640;59.264;18.116;2023-08-31T09:07:36;4.15;;;1.45;;
75059;SDS011;63640;59.264;18.116;2023-08-31T09:10:02;5.03;;;1.70;;
75059;SDS011;63640;59.264;18.116;2023-08-31T09:12:28;4.25;;;1.15;;
75059;SDS011;63640;59.264;18.116;2023-08-31T09:15:00;3.63;;;1.45;;
75059;SDS011;63640;59.264;18.116;2023-08-31T09:17:36;4.13;;;1.15;;
75059;SDS011;63640;59.264;18.116;2023-08-31T09:20:06;3.85;;;1.35;;
75059;SDS011;63640;59.264;18.116;2023-08-31T09:22:34;6.05;;;1.42;;
75059;SDS011;63640;59.264;18.116;2023-08-31T09:24:59;5.53;;;1.30;;
75059;SDS011;63640;59.264;18.116;2023-08-31T09:27:25;8.35;;;1.20;;
75059;SDS011;63640;59.264;18.116;2023-08-31T09:29:53;3.20;;;1.30;;
75059;SDS011;63640;59.264;18.116;2023-08-31T09:32:19;5.72;;;1.55;;
75059;SDS011;63640;59.264;18.116;2023-08-31T09:34:45;4.97;;;1.52;;
75059;SDS011;63640;59.264;18.116;2023-08-31T09:37:10;3.88;;;1.30;;
75059;SDS011;63640;59.264;18.116;2023-08-31T09:39:36;4.40;;;1.15;;
75059;SDS011;63640;59.264;18.116;2023-08-31T09:42:02;4.85;;;1.20;;
75059;SDS011;63640;59.264;18.116;2023-08-31T09:44:28;4.57;;;1.23;;
75059;SDS011;63640;59.264;18.116;2023-08-31T09:46:54;3.25;;;1.40;;
75059;SDS011;63640;59.264;18.116;2023-08-31T09:49:20;3.97;;;1.27;;
75059;SDS011;63640;59.264;18.116;2023-08-31T09:51:46;4.10;;;1.40;;
75059;SDS011;63640;59.264;18.116;2023-08-31T09:54:15;4.70;;;1.50;;
75059;SDS011;63640;59.264;18.116;2023-08-31T09:56:42;4.50;;;1.50;;
75059;SDS011;63640;59.264;18.116;2023-08-31T09:59:09;3.30;;;1.30;;
75059;SDS011;63640;59.264;18.116;2023-08-31T10:01:35;4.70;;;1.27;;
75059;SDS011;63640;59.264;18.116;2023-08-31T10:04:02;4.47;;;1.58;;
75059;SDS011;63640;59.264;18.116;2023-08-31T10:06:28;4.38;;;1.40;;
75059;SDS011;63640;59.264;18.116;2023-08-31T10:08:54;4.22;;;1.50;;
75059;SDS011;63640;59.264;18.116;2023-08-31T10:11:20;3.78;;;1.33;;
75059;SDS011;63640;59.264;18.116;2023-08-31T10:13:47;3.35;;;1.27;;
75059;SDS011;63640;59.264;18.116;2023-08-31T10:16:14;3.53;;;1.10;;
75059;SDS011;63640;59.264;18.116;2023-08-31T10:18:40;5.63;;;1.55;;
75059;SDS011;63640;59.264;18.116;2023-08-31T10:21:06;2.97;;;1.23;;
75059;SDS011;63640;59.264;18.116;2023-08-31T10:23:32;5.32;;;1.30;;
75059;SDS011;63640;59.264;18.116;2023-08-31T10:28:24;3.45;;;1.30;;
75059;SDS011;63640;59.264;18.116;2023-08-31T10:31:06;4.72;;;1.27;;
75059;SDS011;63640;59.264;18.116;2023-08-31T10:36:17;3.30;;;1.23;;
75059;SDS011;63640;59.264;18.116;2023-08-31T10:43:44;3.92;;;1.25;;
75059;SDS011;63640;59.264;18.116;2023-08-31T10:46:36;9.18;;;1.10;;
75059;SDS011;63640;59.264;18.116;2023-08-31T10:51:39;5.50;;;1.30;;
75059;SDS011;63640;59.264;18.116;2023-08-31T10:54:30;5.05;;;1.15;;
75059;SDS011;63640;59.264;18.116;2023-08-31T10:59:46;3.92;;;1.13;;
75059;SDS011;63640;59.264;18.116;2023-08-31T11:07:33;2.63;;;0.93;;
75059;SDS011;63640;59.264;18.116;2023-08-31T11:12:52;3.35;;;1.02;;
75059;SDS011;63640;59.264;18.116;2023-08-31T11:15:19;4.72;;;1.30;;
75059;SDS011;63640;59.264;18.116;2023-08-31T11:17:46;3.50;;;1.15;;
75059;SDS011;63640;59.264;18.116;2023-08-31T11:20:16;3.83;;;1.15;;
75059;SDS011;63640;59.264;18.116;2023-08-31T11:22:43;3.50;;;1.20;;
75059;SDS011;63640;59.264;18.116;2023-08-31T11:25:11;3.90;;;0.95;;
75059;SDS011;63640;59.264;18.116;2023-08-31T11:27:37;3.03;;;1.00;;
75059;SDS011;63640;59.264;18.116;2023-08-31T11:30:10;3.63;;;0.93;;
75059;SDS011;63640;59.264;18.116;2023-08-31T11:32:50;8.60;;;1.30;;
75059;SDS011;63640;59.264;18.116;2023-08-31T11:35:17;3.50;;;1.10;;
75059;SDS011;63640;59.264;18.116;2023-08-31T11:37:43;3.70;;;1.30;;
75059;SDS011;63640;59.264;18.116;2023-08-31T11:40:10;4.15;;;1.23;;
75059;SDS011;63640;59.264;18.116;2023-08-31T11:42:35;4.55;;;1.10;;
75059;SDS011;63640;59.264;18.116;2023-08-31T11:45:01;3.20;;;1.30;;
75059;SDS011;63640;59.264;18.116;2023-08-31T11:47:30;3.05;;;1.10;;
75059;SDS011;63640;59.264;18.116;2023-08-31T11:49:59;3.03;;;1.00;;
75059;SDS011;63640;59.264;18.116;2023-08-31T11:52:26;3.63;;;1.10;;
75059;SDS011;63640;59.264;18.116;2023-08-31T11:54:52;3.60;;;1.25;;
75059;SDS011;63640;59.264;18.116;2023-08-31T11:57:19;3.00;;;1.02;;
75059;SDS011;63640;59.264;18.116;2023-08-31T11:59:44;3.10;;;1.05;;
75059;SDS011;63640;59.264;18.116;2023-08-31T12:02:11;3.75;;;1.10;;
75059;SDS011;63640;59.264;18.116;2023-08-31T12:04:42;4.68;;;1.38;;
75059;SDS011;63640;59.264;18.116;2023-08-31T12:07:08;3.13;;;1.05;;
75059;SDS011;63640;59.264;18.116;2023-08-31T12:09:34;118.55;;;8.40;;
75059;SDS011;63640;59.264;18.116;2023-08-31T12:12:00;5.35;;;1.30;;
75059;SDS011;63640;59.264;18.116;2023-08-31T12:14:26;3.08;;;1.00;;
75059;SDS011;63640;59.264;18.116;2023-08-31T12:16:53;2.22;;;0.90;;
75059;SDS011;63640;59.264;18.116;2023-08-31T12:19:28;3.45;;;0.90;;
75059;SDS011;63640;59.264;18.116;2023-08-31T12:21:55;3.30;;;0.90;;
75059;SDS011;63640;59.264;18.116;2023-08-31T12:24:21;2.75;;;0.90;;
75059;SDS011;63640;59.264;18.116;2023-08-31T12:26:48;2.45;;;0.82;;
75059;SDS011;63640;59.264;18.116;2023-08-31T12:29:14;3.42;;;1.02;;
75059;SDS011;63640;59.264;18.116;2023-08-31T12:31:39;2.40;;;0.88;;
75059;SDS011;63640;59.264;18.116;2023-08-31T12:34:05;4.43;;;1.15;;
75059;SDS011;63640;59.264;18.116;2023-08-31T12:36:35;3.65;;;1.33;;
75059;SDS011;63640;59.264;18.116;2023-08-31T12:39:03;4.38;;;1.30;;
75059;SDS011;63640;59.264;18.116;2023-08-31T12:41:32;3.88;;;1.00;;
75059;SDS011;63640;59.264;18.116;2023-08-31T12:43:58;4.03;;;1.40;;
75059;SDS011;63640;59.264;18.116;2023-08-31T12:46:24;3.30;;;1.10;;
75059;SDS011;63640;59.264;18.116;2023-08-31T12:48:49;4.57;;;1.05;;
75059;SDS011;63640;59.264;18.116;2023-08-31T12:51:16;3.40;;;1.10;;
75059;SDS011;63640;59.264;18.116;2023-08-31T12:53:42;2.90;;;1.13;;
75059;SDS011;63640;59.264;18.116;2023-08-31T12:56:07;3.70;;;1.10;;
75059;SDS011;63640;59.264;18.116;2023-08-31T12:58:33;2.90;;;0.90;;
75059;SDS011;63640;59.264;18.116;2023-08-31T13:00:59;4.00;;;1.20;;
75059;SDS011;63640;59.264;18.116;2023-08-31T13:03:24;5.25;;;1.02;;
75059;SDS011;63640;59.264;18.116;2023-08-31T13:05:50;5.05;;;1.13;;
75059;SDS011;63640;59.264;18.116;2023-08-31T13:08:16;4.72;;;1.30;;
75059;SDS011;63640;59.264;18.116;2023-08-31T13:10:42;4.50;;;1.20;;
75059;SDS011;63640;59.264;18.116;2023-08-31T13:13:07;2.63;;;0.90;;
75059;SDS011;63640;59.264;18.116;2023-08-31T13:15:33;3.63;;;1.20;;
75059;SDS011;63640;59.264;18.116;2023-08-31T13:17:58;3.10;;;1.00;;
75059;SDS011;63640;59.264;18.116;2023-08-31T13:20:24;4.10;;;1.33;;
75059;SDS011;63640;59.264;18.116;2023-08-31T13:22:50;2.92;;;0.95;;
75059;SDS011;63640;59.264;18.116;2023-08-31T13:25:16;3.25;;;1.13;;
75059;SDS011;63640;59.264;18.116;2023-08-31T13:27:42;3.45;;;0.98;;
75059;SDS011;63640;59.264;18.116;2023-08-31T13:30:08;4.63;;;1.00;;
75059;SDS011;63640;59.264;18.116;2023-08-31T13:32:34;3.00;;;1.10;;
75059;SDS011;63640;59.264;18.116;2023-08-31T13:35:00;4.15;;;1.02;;
75059;SDS011;63640;59.264;18.116;2023-08-31T13:37:26;3.42;;;1.35;;
75059;SDS011;63640;59.264;18.116;2023-08-31T13:39:51;4.22;;;1.15;;
75059;SDS011;63640;59.264;18.116;2023-08-31T13:42:17;2.90;;;1.00;;
75059;SDS011;63640;59.264;18.116;2023-08-31T13:44:45;3.65;;;1.50;;
75059;SDS011;63640;59.264;18.116;2023-08-31T13:47:11;5.43;;;2.00;;
75059;SDS011;63640;59.264;18.116;2023-08-31T13:49:36;8.02;;;2.13;;
75059;SDS011;63640;59.264;18.116;2023-08-31T13:52:02;3.55;;;1.40;;
75059;SDS011;63640;59.264;18.116;2023-08-31T13:54:29;4.20;;;1.23;;
75059;SDS011;63640;59.264;18.116;2023-08-31T13:56:54;4.63;;;1.52;;
75059;SDS011;63640;59.264;18.116;2023-08-31T13:59:20;4.35;;;1.15;;
75059;SDS011;63640;59.264;18.116;2023-08-31T14:01:45;3.65;;;1.23;;
75059;SDS011;63640;59.264;18.116;2023-08-31T14:04:11;3.75;;;1.00;;
75059;SDS011;63640;59.264;18.116;2023-08-31T14:06:37;2.90;;;0.90;;
75059;SDS011;63640;59.264;18.116;2023-08-31T14:09:02;3.20;;;1.02;;
75059;SDS011;63640;59.264;18.116;2023-08-31T14:11:30;3.15;;;1.10;;
75059;SDS011;63640;59.264;18.116;2023-08-31T14:14:04;3.05;;;1.20;;
75059;SDS011;63640;59.264;18.116;2023-08-31T14:16:31;3.72;;;1.00;;
75059;SDS011;63640;59.264;18.116;2023-08-31T14:18:57;3.42;;;1.13;;
75059;SDS011;63640;59.264;18.116;2023-08-31T14:21:23;2.95;;;1.10;;
75059;SDS011;63640;59.264;18.116;2023-08-31T14:23:48;3.53;;;1.00;;
75059;SDS011;63640;59.264;18.116;2023-08-31T14:26:14;3.47;;;1.15;;
75059;SDS011;63640;59.264;18.116;2023-08-31T14:28:39;3.75;;;1.15;;
75059;SDS011;63640;59.264;18.116;2023-08-31T14:31:05;3.40;;;1.20;;
75059;SDS011;63640;59.264;18.116;2023-08-31T14:33:31;4.00;;;1.27;;
75059;SDS011;63640;59.264;18.116;2023-08-31T14:35:56;4.65;;;1.60;;
75059;SDS011;63640;59.264;18.116;2023-08-31T14:38:22;3.20;;;1.13;;
75059;SDS011;63640;59.264;18.116;2023-08-31T14:40:48;4.40;;;1.30;;
75059;SDS011;63640;59.264;18.116;2023-08-31T14:43:14;3.88;;;1.30;;
75059;SDS011;63640;59.264;18.116;2023-08-31T14:45:39;4.88;;;1.33;;
75059;SDS011;63640;59.264;18.116;2023-08-31T14:48:05;4.07;;;1.00;;
75059;SDS011;63640;59.264;18.116;2023-08-31T14:50:30;3.42;;;1.13;;
75059;SDS011;63640;59.264;18.116;2023-08-31T14:52:56;4.30;;;1.20;;
75059;SDS011;63640;59.264;18.116;2023-08-31T14:55:21;3.80;;;0.90;;
75059;SDS011;63640;59.264;18.116;2023-08-31T14:57:47;4.45;;;1.10;;
75059;SDS011;63640;59.264;18.116;2023-08-31T15:00:12;3.03;;;1.02;;